Time;durP1;ratioP1;P1;durP2;ratioP2;P2;SDS_P1;SDS_P2;PMS_P1;PMS_P2;Temp;Humidity;BMP_temperature;BMP_pressure;BME280_temperature;BME280_humidity;BME280_pressure;Samples;Min_cycle;Max_cycle;Signal;HPM_P1;HPM_P2
2021/06/02 00:02:00;;;;;;;;;1.67;1.67;;;;;;;;5102022;27;11444;-56
2021/06/02 00:04:26;;;;;;;;;1.25;1.00;;;;;;;;5108810;27;8823;-56
2021/06/02 00:06:56;;;;;;;;;2.00;2.00;;;;;;;;5102761;27;9795;-56
2021/06/02 00:09:22;;;;;;;;;1.50;1.00;;;;;;;;5101511;27;10596;-56
2021/06/02 00:11:48;;;;;;;;;1.00;1.00;;;;;;;;5084302;28;10844;-56
2021/06/02 00:14:16;;;;;;;;;1.00;0.00;;;;;;;;5111608;27;8788;-56
2021/06/02 00:16:42;;;;;;;;;1.00;1.00;;;;;;;;5106620;27;8985;-56
2021/06/02 00:19:08;;;;;;;;;2.00;1.67;;;;;;;;5104122;27;8891;-55
2021/06/02 00:21:33;;;;;;;;;0.50;0.50;;;;;;;;5099563;27;11452;-56
2021/06/02 00:23:59;;;;;;;;;0.67;0.67;;;;;;;;5090302;27;11472;-56
2021/06/02 00:26:24;;;;;;;;;1.00;1.00;;;;;;;;5108151;27;8826;-56
2021/06/02 00:28:49;;;;;;;;;2.00;1.00;;;;;;;;5087267;28;11294;-56
2021/06/02 00:31:15;;;;;;;;;1.67;0.00;;;;;;;;5098669;27;8811;-56
2021/06/02 00:33:40;;;;;;;;;1.00;1.00;;;;;;;;5100688;27;10478;-55
2021/06/02 00:36:06;;;;;;;;;0.33;0.33;;;;;;;;5095362;28;9629;-56
2021/06/02 00:38:32;;;;;;;;;0.00;0.00;;;;;;;;5088862;28;11471;-56
2021/06/02 00:43:48;;;;;;;;;1.00;1.00;;;;;;;;5107600;27;9391;-56
2021/06/02 00:46:14;;;;;;;;;1.00;1.00;;;;;;;;5108985;27;12595;-56
2021/06/02 00:48:41;;;;;;;;;0.00;0.00;;;;;;;;5114688;27;8785;-55
2021/06/02 00:51:06;;;;;;;;;2.00;1.00;;;;;;;;5110821;27;8756;-56
2021/06/02 00:53:34;;;;;;;;;0.33;0.00;;;;;;;;5113777;27;9861;-55
2021/06/02 00:56:01;;;;;;;;;1.00;0.25;;;;;;;;5111620;27;10627;-55
2021/06/02 00:58:30;;;;;;;;;0.00;0.00;;;;;;;;5095584;27;11548;-56
2021/06/02 01:00:56;;;;;;;;;1.00;1.00;;;;;;;;5095762;28;11584;-56
2021/06/02 01:03:22;;;;;;;;;1.00;1.00;;;;;;;;5088124;28;8938;-56
2021/06/02 01:05:47;;;;;;;;;2.00;1.33;;;;;;;;5092076;27;10024;-55
2021/06/02 01:08:13;;;;;;;;;0.33;0.33;;;;;;;;5113310;27;11519;-55
2021/06/02 01:10:38;;;;;;;;;1.00;1.00;;;;;;;;5111060;27;10256;-55
2021/06/02 01:13:06;;;;;;;;;1.00;1.00;;;;;;;;5107381;27;11647;-55
2021/06/02 01:15:31;;;;;;;;;1.00;1.00;;;;;;;;5110991;27;8760;-56
2021/06/02 01:17:58;;;;;;;;;1.00;1.00;;;;;;;;5115174;27;8788;-56
2021/06/02 01:20:24;;;;;;;;;0.50;0.50;;;;;;;;5116107;27;8814;-55
2021/06/02 01:22:49;;;;;;;;;0.00;0.00;;;;;;;;5095042;27;12803;-56
2021/06/02 01:25:19;;;;;;;;;0.00;0.00;;;;;;;;5103175;27;8788;-55
2021/06/02 01:27:44;;;;;;;;;1.00;1.00;;;;;;;;5101154;27;8821;-56
2021/06/02 01:30:11;;;;;;;;;0.00;0.00;;;;;;;;5102291;27;8820;-55
2021/06/02 01:32:39;;;;;;;;;1.50;1.00;;;;;;;;5089213;27;9000;-55
2021/06/02 01:35:16;;;;;;;;;1.00;1.00;;;;;;;;5108516;27;10537;-56
2021/06/02 01:37:44;;;;;;;;;1.00;0.00;;;;;;;;5091756;27;8879;-56
2021/06/02 01:40:28;;;;;;;;;0.00;0.00;;;;;;;;5100545;27;8782;-55
2021/06/02 01:43:08;;;;;;;;;0.00;0.00;;;;;;;;5108138;27;8847;-56
2021/06/02 01:45:53;;;;;;;;;0.00;0.00;;;;;;;;5096285;27;8790;-55
2021/06/02 01:48:21;;;;;;;;;1.50;1.00;;;;;;;;5089195;27;8797;-55
2021/06/02 01:51:05;;;;;;;;;1.00;1.00;;;;;;;;5094083;27;10350;-55
2021/06/02 01:53:33;;;;;;;;;1.50;1.50;;;;;;;;5112635;27;8945;-55
2021/06/02 01:56:17;;;;;;;;;1.00;1.00;;;;;;;;5089767;28;8922;-55
2021/06/02 01:58:45;;;;;;;;;1.25;1.25;;;;;;;;5090140;28;8915;-55
2021/06/02 02:01:21;;;;;;;;;1.00;1.00;;;;;;;;5101014;27;8794;-55
2021/06/02 02:04:01;;;;;;;;;1.00;1.00;;;;;;;;5099653;27;8893;-55
2021/06/02 02:06:26;;;;;;;;;0.75;0.75;;;;;;;;5088344;28;9789;-55
2021/06/02 02:08:58;;;;;;;;;0.67;0.67;;;;;;;;5093905;28;11661;-56
2021/06/02 02:11:32;;;;;;;;;0.50;0.50;;;;;;;;5092537;28;8787;-55
2021/06/02 02:14:06;;;;;;;;;0.50;0.25;;;;;;;;5104917;27;8802;-55
2021/06/02 02:16:47;;;;;;;;;0.50;0.50;;;;;;;;5108250;27;8898;-55
2021/06/02 02:19:23;;;;;;;;;0.50;0.50;;;;;;;;5096294;27;8795;-55
2021/06/02 02:21:54;;;;;;;;;0.50;0.50;;;;;;;;5090618;28;9573;-55
2021/06/02 02:24:24;;;;;;;;;1.00;0.00;;;;;;;;5091986;27;8771;-56
2021/06/02 02:27:00;;;;;;;;;2.00;1.25;;;;;;;;5101864;27;11629;-56
2021/06/02 02:29:44;;;;;;;;;0.75;0.25;;;;;;;;5113234;27;11601;-55
2021/06/02 02:32:24;;;;;;;;;1.00;0.50;;;;;;;;5106024;27;14861;-55
2021/06/02 02:34:58;;;;;;;;;2.00;1.00;;;;;;;;5106276;27;12769;-56
2021/06/02 02:37:46;;;;;;;;;1.00;1.00;;;;;;;;5112348;27;11613;-55
2021/06/02 02:40:49;;;;;;;;;0.00;0.00;;;;;;;;5111176;27;8778;-55
2021/06/02 02:43:34;;;;;;;;;1.50;1.50;;;;;;;;5045711;28;9847;-55
2021/06/02 02:46:07;;;;;;;;;0.00;0.00;;;;;;;;5045538;28;11772;-56
2021/06/02 02:48:36;;;;;;;;;1.00;0.00;;;;;;;;5075626;28;11724;-55
2021/06/02 02:51:22;;;;;;;;;1.00;1.00;;;;;;;;5086617;28;8879;-56
2021/06/02 02:53:52;;;;;;;;;1.00;1.00;;;;;;;;5088329;27;8789;-56
2021/06/02 02:56:40;;;;;;;;;1.00;1.00;;;;;;;;5106775;27;8783;-56
2021/06/02 02:59:05;;;;;;;;;0.50;0.50;;;;;;;;5075915;27;8937;-55
2021/06/02 03:01:39;;;;;;;;;0.67;0.67;;;;;;;;5111866;27;11528;-55
2021/06/02 03:04:08;;;;;;;;;1.00;1.00;;;;;;;;5110902;27;8803;-55
2021/06/02 03:06:40;;;;;;;;;1.00;1.00;;;;;;;;5105794;27;11613;-56
2021/06/02 03:09:26;;;;;;;;;0.00;0.00;;;;;;;;5105452;27;8806;-55
2021/06/02 03:12:09;;;;;;;;;1.00;1.00;;;;;;;;5084631;28;10668;-56
2021/06/02 03:14:49;;;;;;;;;1.00;1.00;;;;;;;;5090947;28;8842;-56
2021/06/02 03:17:33;;;;;;;;;1.75;1.00;;;;;;;;5087677;28;14741;-55
2021/06/02 03:20:04;;;;;;;;;1.00;1.00;;;;;;;;5092598;28;8794;-55
2021/06/02 03:22:39;;;;;;;;;1.25;1.25;;;;;;;;5102128;27;8791;-55
2021/06/02 03:25:27;;;;;;;;;1.50;1.50;;;;;;;;5110571;27;8787;-56
2021/06/02 03:27:58;;;;;;;;;1.25;1.25;;;;;;;;5116366;27;8887;-56
2021/06/02 03:30:31;;;;;;;;;1.25;1.00;;;;;;;;5104523;27;8846;-56
2021/06/02 03:33:15;;;;;;;;;0.00;0.00;;;;;;;;5084618;27;10087;-56
2021/06/02 03:35:59;;;;;;;;;0.00;0.00;;;;;;;;5089590;28;10563;-56
2021/06/02 03:38:42;;;;;;;;;1.00;1.00;;;;;;;;5104948;27;14226;-55
2021/06/02 03:41:26;;;;;;;;;0.00;0.00;;;;;;;;5085886;28;10345;-56
2021/06/02 03:43:55;;;;;;;;;1.50;1.50;;;;;;;;5111307;27;8784;-56
2021/06/02 03:46:42;;;;;;;;;1.00;1.00;;;;;;;;5094465;27;12997;-56
2021/06/02 03:49:22;;;;;;;;;1.00;1.00;;;;;;;;5088294;27;8915;-56
2021/06/02 03:52:04;;;;;;;;;1.00;1.00;;;;;;;;5094455;27;8793;-55
2021/06/02 03:54:32;;;;;;;;;1.00;1.00;;;;;;;;5108576;27;9806;-55
2021/06/02 03:57:04;;;;;;;;;1.00;1.00;;;;;;;;5108230;27;8810;-55
2021/06/02 03:59:40;;;;;;;;;1.00;1.00;;;;;;;;5109342;27;8952;-55
2021/06/02 04:02:11;;;;;;;;;0.25;0.25;;;;;;;;5103672;27;8765;-55
2021/06/02 04:04:55;;;;;;;;;1.00;1.00;;;;;;;;5089386;27;11803;-56
2021/06/02 04:07:46;;;;;;;;;1.00;1.00;;;;;;;;5103719;27;12672;-56
2021/06/02 04:10:13;;;;;;;;;1.00;1.00;;;;;;;;5110115;27;9576;-56
2021/06/02 04:12:45;;;;;;;;;1.00;1.00;;;;;;;;5101552;27;8722;-55
2021/06/02 04:15:11;;;;;;;;;1.50;1.00;;;;;;;;5093234;28;8938;-56
2021/06/02 04:17:39;;;;;;;;;1.00;1.00;;;;;;;;5091575;28;8876;-56
2021/06/02 04:20:05;;;;;;;;;1.00;1.00;;;;;;;;5093605;28;9008;-56
2021/06/02 04:22:31;;;;;;;;;0.00;0.00;;;;;;;;5091681;28;9550;-56
2021/06/02 04:24:56;;;;;;;;;1.00;1.00;;;;;;;;5089729;27;8820;-56
2021/06/02 04:27:22;;;;;;;;;1.00;1.00;;;;;;;;5089502;28;9642;-56
2021/06/02 04:29:48;;;;;;;;;1.00;1.00;;;;;;;;5092456;27;8795;-56
2021/06/02 04:32:14;;;;;;;;;0.00;0.00;;;;;;;;5108305;27;9566;-56
2021/06/02 04:34:40;;;;;;;;;1.00;1.00;;;;;;;;5093305;28;9408;-56
2021/06/02 04:37:07;;;;;;;;;1.00;1.00;;;;;;;;5088758;28;8972;-56
2021/06/02 04:39:33;;;;;;;;;0.00;0.00;;;;;;;;5090509;28;8799;-56
2021/06/02 04:41:59;;;;;;;;;1.00;1.00;;;;;;;;5087637;28;8785;-56
2021/06/02 04:44:26;;;;;;;;;1.00;1.00;;;;;;;;5092810;27;8808;-56
2021/06/02 04:46:51;;;;;;;;;1.00;1.00;;;;;;;;5108138;27;9535;-56
2021/06/02 04:49:17;;;;;;;;;1.00;1.00;;;;;;;;5108086;27;8847;-56
2021/06/02 04:51:59;;;;;;;;;1.00;1.00;;;;;;;;5103037;27;8791;-56
2021/06/02 04:54:33;;;;;;;;;1.00;1.00;;;;;;;;5110656;27;10896;-55
2021/06/02 04:56:59;;;;;;;;;1.00;1.00;;;;;;;;5107385;27;8811;-56
2021/06/02 04:59:27;;;;;;;;;1.00;1.00;;;;;;;;5109749;27;8795;-56
2021/06/02 05:02:11;;;;;;;;;0.25;0.25;;;;;;;;5108095;27;8812;-56
2021/06/02 05:04:59;;;;;;;;;1.50;0.50;;;;;;;;5111690;27;11585;-56
2021/06/02 05:07:39;;;;;;;;;2.00;1.00;;;;;;;;5088493;27;11616;-56
2021/06/02 05:10:35;;;;;;;;;1.00;1.00;;;;;;;;5110119;27;11776;-56
2021/06/02 05:13:03;;;;;;;;;1.25;1.25;;;;;;;;5110288;27;8837;-56
2021/06/02 05:15:34;;;;;;;;;1.00;1.00;;;;;;;;5106827;27;8934;-56
2021/06/02 05:18:02;;;;;;;;;1.75;1.75;;;;;;;;5109983;27;8800;-57
2021/06/02 05:20:39;;;;;;;;;1.00;1.00;;;;;;;;5109642;27;8792;-56
2021/06/02 05:23:23;;;;;;;;;0.25;0.25;;;;;;;;5107676;27;8889;-56
2021/06/02 05:26:15;;;;;;;;;1.00;1.00;;;;;;;;5092716;27;11548;-57
2021/06/02 05:28:43;;;;;;;;;1.25;1.00;;;;;;;;5105196;27;11540;-56
2021/06/02 05:31:11;;;;;;;;;1.50;1.00;;;;;;;;5109738;27;8819;-56
2021/06/02 05:33:48;;;;;;;;;1.00;1.00;;;;;;;;5099531;27;9518;-56
2021/06/02 05:36:20;;;;;;;;;1.00;1.00;;;;;;;;5087787;28;8774;-57
2021/06/02 05:38:45;;;;;;;;;1.00;1.00;;;;;;;;5083946;28;8767;-57
2021/06/02 05:41:29;;;;;;;;;1.00;1.00;;;;;;;;5087530;28;9610;-56
2021/06/02 05:43:57;;;;;;;;;3.00;3.00;;;;;;;;5097987;28;8801;-56
2021/06/02 05:46:35;;;;;;;;;2.00;2.00;;;;;;;;5086503;28;8878;-56
2021/06/02 05:49:03;;;;;;;;;3.00;3.00;;;;;;;;5090378;28;8802;-56
2021/06/02 05:51:40;;;;;;;;;3.25;3.25;;;;;;;;5096292;27;8836;-67
2021/06/02 05:54:24;;;;;;;;;3.50;3.50;;;;;;;;5105179;27;9708;-65
2021/06/02 05:56:53;;;;;;;;;2.00;2.00;;;;;;;;5106089;27;8860;-66
2021/06/02 05:59:18;;;;;;;;;3.25;3.25;;;;;;;;5110665;27;11619;-67
2021/06/02 06:01:43;;;;;;;;;3.00;3.00;;;;;;;;5106798;27;11441;-69
2021/06/02 06:04:31;;;;;;;;;5.00;4.50;;;;;;;;5109736;27;8768;-67
2021/06/02 06:07:15;;;;;;;;;2.00;2.00;;;;;;;;5103387;27;11934;-54
2021/06/02 06:09:59;;;;;;;;;4.00;3.00;;;;;;;;5109209;27;11447;-54
2021/06/02 06:12:27;;;;;;;;;4.00;3.25;;;;;;;;5100233;27;8831;-72
2021/06/02 06:15:08;;;;;;;;;3.00;3.00;;;;;;;;5096585;27;8806;-69
2021/06/02 06:17:52;;;;;;;;;4.00;4.00;;;;;;;;5112912;27;11767;-54
2021/06/02 06:20:27;;;;;;;;;3.25;3.00;;;;;;;;5090385;28;13339;-54
2021/06/02 06:23:11;;;;;;;;;3.00;3.00;;;;;;;;5089433;28;10569;-54
2021/06/02 06:25:39;;;;;;;;;3.00;3.00;;;;;;;;5101743;27;8824;-54
2021/06/02 06:28:04;;;;;;;;;3.00;3.00;;;;;;;;5098263;27;8780;-54
2021/06/02 06:30:34;;;;;;;;;2.75;2.75;;;;;;;;5089619;28;8770;-55
2021/06/02 06:33:01;;;;;;;;;3.00;3.00;;;;;;;;5088398;28;11452;-54
2021/06/02 06:35:28;;;;;;;;;3.25;3.00;;;;;;;;5088436;28;12668;-54
2021/06/02 06:37:55;;;;;;;;;4.75;4.25;;;;;;;;5087005;28;9542;-54
2021/06/02 06:40:22;;;;;;;;;5.00;4.00;;;;;;;;5099579;27;11583;-54
2021/06/02 06:42:51;;;;;;;;;2.00;2.00;;;;;;;;5098443;27;11619;-54
2021/06/02 06:45:18;;;;;;;;;4.00;4.00;;;;;;;;5085414;28;9055;-58
2021/06/02 06:47:45;;;;;;;;;3.00;2.50;;;;;;;;5089465;27;8969;-55
2021/06/02 06:50:12;;;;;;;;;2.75;2.00;;;;;;;;5088175;28;12617;-54
2021/06/02 06:52:38;;;;;;;;;3.00;2.00;;;;;;;;5089030;28;11596;-54
2021/06/02 06:55:04;;;;;;;;;2.00;2.00;;;;;;;;5104878;27;8906;-54
2021/06/02 06:57:30;;;;;;;;;2.00;2.00;;;;;;;;5107442;27;8793;-54
2021/06/02 06:59:55;;;;;;;;;2.00;2.00;;;;;;;;5107216;27;8836;-54
2021/06/02 07:02:21;;;;;;;;;2.67;2.67;;;;;;;;5113098;27;8776;-54
2021/06/02 07:04:46;;;;;;;;;3.00;3.00;;;;;;;;5113181;27;8816;-54
2021/06/02 07:07:13;;;;;;;;;2.00;1.00;;;;;;;;5100575;27;11476;-54
2021/06/02 07:09:39;;;;;;;;;2.00;2.00;;;;;;;;5086755;28;8787;-54
2021/06/02 07:12:04;;;;;;;;;3.50;3.50;;;;;;;;5084877;28;8798;-54
2021/06/02 07:14:30;;;;;;;;;3.00;2.00;;;;;;;;5092743;28;11736;-54
2021/06/02 07:17:04;;;;;;;;;4.00;3.50;;;;;;;;5088431;27;10582;-54
2021/06/02 07:19:29;;;;;;;;;3.00;2.50;;;;;;;;5106489;27;11586;-55
2021/06/02 07:21:56;;;;;;;;;2.00;2.00;;;;;;;;5109896;27;9549;-54
2021/06/02 07:24:22;;;;;;;;;2.25;2.00;;;;;;;;5108087;27;11713;-55
2021/06/02 07:26:47;;;;;;;;;2.00;2.00;;;;;;;;5109266;27;8805;-55
2021/06/02 07:29:13;;;;;;;;;1.67;1.67;;;;;;;;5106661;27;8816;-54
2021/06/02 07:31:39;;;;;;;;;2.00;2.00;;;;;;;;5108665;27;11538;-54
2021/06/02 07:34:05;;;;;;;;;2.00;2.00;;;;;;;;5108353;27;11672;-54
2021/06/02 07:36:31;;;;;;;;;2.00;2.00;;;;;;;;5107597;27;8823;-54
2021/06/02 07:38:56;;;;;;;;;2.00;2.00;;;;;;;;5106973;27;8804;-54
2021/06/02 07:41:21;;;;;;;;;2.00;2.00;;;;;;;;5109984;27;9191;-54
2021/06/02 07:43:47;;;;;;;;;1.33;1.33;;;;;;;;5117861;27;9589;-54
2021/06/02 07:46:12;;;;;;;;;2.00;2.00;;;;;;;;5120929;27;11703;-54
2021/06/02 07:48:37;;;;;;;;;2.00;2.00;;;;;;;;5105488;27;11715;-54
2021/06/02 07:51:02;;;;;;;;;1.33;1.33;;;;;;;;5092151;28;8759;-54
2021/06/02 07:53:28;;;;;;;;;3.00;1.67;;;;;;;;5094556;28;12619;-54
2021/06/02 07:55:53;;;;;;;;;3.00;3.00;;;;;;;;5108880;27;11685;-54
2021/06/02 07:58:18;;;;;;;;;2.00;2.00;;;;;;;;5114493;27;9041;-54
2021/06/02 08:00:43;;;;;;;;;2.00;2.00;;;;;;;;5101933;27;8815;-54
2021/06/02 08:03:09;;;;;;;;;2.33;2.33;;;;;;;;5088653;28;8827;-54
2021/06/02 08:05:34;;;;;;;;;2.33;1.33;;;;;;;;5095664;28;8822;-54
2021/06/02 08:07:59;;;;;;;;;2.00;2.00;;;;;;;;5110405;27;9037;-54
2021/06/02 08:10:25;;;;;;;;;2.33;2.33;;;;;;;;5110322;27;10463;-54
2021/06/02 08:12:50;;;;;;;;;2.00;2.00;;;;;;;;5112074;27;8838;-54
2021/06/02 08:15:16;;;;;;;;;1.00;1.00;;;;;;;;5106736;27;8818;-54
2021/06/02 08:17:42;;;;;;;;;1.00;1.00;;;;;;;;5112479;27;8779;-54
2021/06/02 08:20:09;;;;;;;;;2.00;2.00;;;;;;;;5090895;27;8843;-54
2021/06/02 08:22:34;;;;;;;;;1.25;1.25;;;;;;;;5109700;27;8885;-54
2021/06/02 08:25:07;;;;;;;;;2.00;2.00;;;;;;;;5100741;27;11617;-54
2021/06/02 08:27:33;;;;;;;;;2.00;2.00;;;;;;;;5086128;28;13019;-54
2021/06/02 08:29:58;;;;;;;;;2.00;2.00;;;;;;;;5090251;27;8851;-54
2021/06/02 08:32:24;;;;;;;;;3.67;2.00;;;;;;;;5097262;28;8797;-54
2021/06/02 08:34:50;;;;;;;;;1.75;1.75;;;;;;;;5109753;27;9243;-54
2021/06/02 08:37:15;;;;;;;;;1.00;1.00;;;;;;;;5111920;27;11496;-54
2021/06/02 08:39:41;;;;;;;;;1.67;1.00;;;;;;;;5104309;27;8807;-54
2021/06/02 08:42:07;;;;;;;;;1.00;1.00;;;;;;;;5091542;27;8776;-54
2021/06/02 08:44:32;;;;;;;;;1.00;1.00;;;;;;;;5112446;27;9319;-54
2021/06/02 08:46:58;;;;;;;;;2.00;2.00;;;;;;;;5092927;27;8807;-54
2021/06/02 08:49:23;;;;;;;;;1.00;1.00;;;;;;;;5104719;27;8820;-54
2021/06/02 08:51:48;;;;;;;;;1.67;1.67;;;;;;;;5101872;27;8835;-54
2021/06/02 08:54:14;;;;;;;;;3.00;2.00;;;;;;;;5091542;27;8776;-54
2021/06/02 08:56:40;;;;;;;;;1.00;1.00;;;;;;;;5109382;27;11570;-54
2021/06/02 08:59:06;;;;;;;;;2.00;2.00;;;;;;;;5111364;27;9892;-54
2021/06/02 09:01:31;;;;;;;;;2.00;2.00;;;;;;;;5108164;27;8912;-54
2021/06/02 09:03:58;;;;;;;;;2.33;2.00;;;;;;;;5110397;27;9355;-54
2021/06/02 09:06:24;;;;;;;;;3.00;2.50;;;;;;;;5104193;27;8786;-54
2021/06/02 09:08:50;;;;;;;;;1.00;1.00;;;;;;;;5089828;27;11556;-55
2021/06/02 09:11:17;;;;;;;;;1.33;1.33;;;;;;;;5092158;28;11429;-54
2021/06/02 09:13:43;;;;;;;;;3.00;2.00;;;;;;;;5103997;27;9008;-54
2021/06/02 09:16:17;;;;;;;;;2.00;2.00;;;;;;;;5100154;27;11673;-54
2021/06/02 09:18:46;;;;;;;;;1.25;1.25;;;;;;;;5096287;27;8776;-54
2021/06/02 09:21:11;;;;;;;;;2.00;1.50;;;;;;;;5108190;27;11707;-54
2021/06/02 09:23:38;;;;;;;;;1.00;1.00;;;;;;;;5113115;27;11485;-54
2021/06/02 09:26:09;;;;;;;;;1.00;1.00;;;;;;;;5106690;27;11807;-54
2021/06/02 09:29:08;;;;;;;;;2.00;2.00;;;;;;;;5108138;27;8966;-54
2021/06/02 09:31:35;;;;;;;;;2.75;2.00;;;;;;;;5105098;27;8822;-54
2021/06/02 09:34:06;;;;;;;;;2.00;2.00;;;;;;;;5109473;27;8780;-54
2021/06/02 09:36:37;;;;;;;;;1.00;1.00;;;;;;;;5109915;27;8796;-54
2021/06/02 09:39:07;;;;;;;;;1.00;1.00;;;;;;;;5111774;27;8856;-54
2021/06/02 09:41:42;;;;;;;;;1.25;1.25;;;;;;;;5108807;27;8927;-54
2021/06/02 09:44:24;;;;;;;;;1.75;1.75;;;;;;;;5108501;27;9030;-54
2021/06/02 09:47:04;;;;;;;;;2.00;2.00;;;;;;;;5112922;27;8810;-54
2021/06/02 09:49:43;;;;;;;;;2.00;2.00;;;;;;;;5108576;27;11653;-54
2021/06/02 09:52:09;;;;;;;;;1.50;1.00;;;;;;;;5106452;27;8779;-54
2021/06/02 09:54:34;;;;;;;;;1.00;1.00;;;;;;;;5105404;27;10669;-54
2021/06/02 09:56:59;;;;;;;;;2.00;2.00;;;;;;;;5091053;27;8810;-54
2021/06/02 09:59:24;;;;;;;;;1.00;1.00;;;;;;;;5116628;27;8931;-53
2021/06/02 10:01:51;;;;;;;;;2.00;2.00;;;;;;;;5109862;27;8837;-54
2021/06/02 10:04:17;;;;;;;;;1.25;1.25;;;;;;;;5105732;27;9807;-54
2021/06/02 10:06:42;;;;;;;;;1.00;1.00;;;;;;;;5107528;27;11493;-84
2021/06/02 10:09:07;;;;;;;;;1.00;1.00;;;;;;;;5106246;27;8800;-82
2021/06/02 10:11:34;;;;;;;;;2.00;2.00;;;;;;;;5093993;28;8826;-84
2021/06/02 10:14:01;;;;;;;;;2.00;2.00;;;;;;;;5110223;27;8784;-80
2021/06/02 10:16:36;;;;;;;;;2.75;2.00;;;;;;;;5094739;27;8783;-74
2021/06/02 10:19:02;;;;;;;;;1.00;1.00;;;;;;;;5091457;28;8795;-74
2021/06/02 10:21:41;;;;;;;;;2.00;2.00;;;;;;;;5088745;28;10252;-73
2021/06/02 10:24:07;;;;;;;;;2.00;2.00;;;;;;;;5090366;27;8772;-56
2021/06/02 10:26:32;;;;;;;;;2.00;2.00;;;;;;;;5106913;27;8788;-69
2021/06/02 10:28:58;;;;;;;;;2.00;2.00;;;;;;;;5105841;27;8796;-70
2021/06/02 10:31:23;;;;;;;;;2.33;2.33;;;;;;;;5094916;27;8811;-67
2021/06/02 10:33:48;;;;;;;;;2.00;2.00;;;;;;;;5089480;28;8821;-67
2021/06/02 10:36:14;;;;;;;;;2.00;2.00;;;;;;;;5089753;27;8942;-73
2021/06/02 10:38:42;;;;;;;;;3.33;3.00;;;;;;;;5112962;27;8800;-69
2021/06/02 10:41:14;;;;;;;;;2.00;1.75;;;;;;;;5102089;27;15107;-68
2021/06/02 10:43:42;;;;;;;;;1.00;1.00;;;;;;;;5103854;27;11499;-56
2021/06/02 10:46:12;;;;;;;;;1.75;1.75;;;;;;;;5106511;27;11725;-57
2021/06/02 10:48:46;;;;;;;;;1.75;1.75;;;;;;;;5101388;27;10091;-73
2021/06/02 10:51:33;;;;;;;;;3.25;2.75;;;;;;;;5091402;28;8819;-56
2021/06/02 10:54:02;;;;;;;;;1.25;1.00;;;;;;;;5106090;27;9869;-57
2021/06/02 10:56:27;;;;;;;;;4.00;2.00;;;;;;;;5086544;28;11766;-57
2021/06/02 10:58:55;;;;;;;;;2.00;2.00;;;;;;;;5104979;27;14266;-66
2021/06/02 11:01:21;;;;;;;;;3.00;3.00;;;;;;;;5089103;27;8916;-65
2021/06/02 11:04:06;;;;;;;;;2.33;2.33;;;;;;;;5084388;27;8969;-62
2021/06/02 11:06:33;;;;;;;;;1.25;1.25;;;;;;;;5087760;27;12653;-68
2021/06/02 11:09:03;;;;;;;;;2.00;2.00;;;;;;;;5101952;27;8774;-68
2021/06/02 11:11:36;;;;;;;;;2.00;2.00;;;;;;;;5103417;27;11590;-65
2021/06/02 11:14:17;;;;;;;;;2.00;2.00;;;;;;;;5088315;27;9554;-65
2021/06/02 11:16:56;;;;;;;;;3.25;2.75;;;;;;;;5088915;28;8789;-67
2021/06/02 11:19:24;;;;;;;;;2.00;2.00;;;;;;;;5100494;27;11944;-67
2021/06/02 11:21:52;;;;;;;;;1.00;1.00;;;;;;;;5091207;27;12853;-55
2021/06/02 11:24:47;;;;;;;;;1.00;1.00;;;;;;;;5086897;27;8817;-55
2021/06/02 11:29:49;;;;;;;;;3.67;3.00;;;;;;;;5110875;27;8862;-69
2021/06/02 11:32:22;;;;;;;;;2.00;2.00;;;;;;;;5101056;27;15059;-67
2021/06/02 11:34:49;;;;;;;;;2.00;2.00;;;;;;;;5101021;27;10733;-66
2021/06/02 11:37:16;;;;;;;;;2.00;2.00;;;;;;;;5106336;27;8824;-66
2021/06/02 11:39:42;;;;;;;;;3.00;2.00;;;;;;;;5106013;27;8784;-68
2021/06/02 11:42:09;;;;;;;;;2.00;1.00;;;;;;;;5101193;27;8859;-69
2021/06/02 11:44:35;;;;;;;;;2.00;2.00;;;;;;;;5088925;28;8739;-66
2021/06/02 11:47:01;;;;;;;;;1.50;1.50;;;;;;;;5079545;28;8798;-70
2021/06/02 11:49:28;;;;;;;;;3.00;2.00;;;;;;;;5081479;28;12433;-69
2021/06/02 11:52:04;;;;;;;;;1.75;1.25;;;;;;;;5085691;28;11580;-65
2021/06/02 11:54:45;;;;;;;;;2.75;2.00;;;;;;;;5091401;27;12723;-62
2021/06/02 11:57:28;;;;;;;;;4.00;3.00;;;;;;;;5093225;27;11729;-66
2021/06/02 11:59:54;;;;;;;;;4.00;4.00;;;;;;;;5103673;27;10758;-62
2021/06/02 12:02:20;;;;;;;;;8.50;8.00;;;;;;;;5107146;27;8830;-56
2021/06/02 12:04:45;;;;;;;;;14.67;13.00;;;;;;;;5096310;27;10441;-62
2021/06/02 12:07:24;;;;;;;;;14.00;12.00;;;;;;;;5084694;28;22470;-64
2021/06/02 12:09:51;;;;;;;;;13.75;12.00;;;;;;;;5096075;27;9876;-62
2021/06/02 12:12:16;;;;;;;;;13.50;13.00;;;;;;;;5104447;27;9145;-60
2021/06/02 12:14:41;;;;;;;;;18.00;16.67;;;;;;;;5107898;27;9768;-56
2021/06/02 12:17:07;;;;;;;;;12.33;12.33;;;;;;;;5109603;27;11540;-55
2021/06/02 12:19:33;;;;;;;;;12.33;11.33;;;;;;;;5103405;27;11765;-55
2021/06/02 12:22:09;;;;;;;;;13.00;12.00;;;;;;;;5094480;27;9480;-56
2021/06/02 12:24:34;;;;;;;;;8.00;7.25;;;;;;;;5086258;28;11650;-56
2021/06/02 12:27:01;;;;;;;;;12.00;11.33;;;;;;;;5087950;27;23481;-55
2021/06/02 12:29:30;;;;;;;;;9.50;9.00;;;;;;;;5107937;27;23774;-56
2021/06/02 12:31:58;;;;;;;;;6.00;5.75;;;;;;;;5106861;27;22438;-56
2021/06/02 12:34:32;;;;;;;;;6.75;6.50;;;;;;;;5093269;27;11568;-56
2021/06/02 12:36:59;;;;;;;;;6.00;6.00;;;;;;;;5090204;28;10570;-56
2021/06/02 12:39:28;;;;;;;;;5.00;5.00;;;;;;;;5086651;28;9690;-57
2021/06/02 12:41:54;;;;;;;;;6.00;5.00;;;;;;;;5088948;28;8787;-57
2021/06/02 12:44:30;;;;;;;;;6.00;5.33;;;;;;;;5092779;28;8802;-57
2021/06/02 12:46:56;;;;;;;;;6.00;5.50;;;;;;;;5106563;27;8796;-57
2021/06/02 12:49:21;;;;;;;;;7.25;6.25;;;;;;;;5109243;27;8827;-57
2021/06/02 12:51:49;;;;;;;;;6.00;6.00;;;;;;;;5103063;27;11469;-57
2021/06/02 12:54:15;;;;;;;;;4.25;4.25;;;;;;;;5094578;27;12846;-57
2021/06/02 12:56:40;;;;;;;;;7.00;6.00;;;;;;;;5109266;27;11631;-57
2021/06/02 12:59:06;;;;;;;;;5.00;4.00;;;;;;;;5110261;27;11477;-57
2021/06/02 13:01:32;;;;;;;;;5.00;5.00;;;;;;;;5095800;27;8862;-57
2021/06/02 13:03:59;;;;;;;;;5.25;5.25;;;;;;;;5091395;28;8783;-57
2021/06/02 13:06:26;;;;;;;;;4.00;4.00;;;;;;;;5087123;28;8779;-57
2021/06/02 13:08:52;;;;;;;;;6.50;5.50;;;;;;;;5092665;27;11595;-58
2021/06/02 13:11:18;;;;;;;;;5.00;4.00;;;;;;;;5108373;27;11655;-57
2021/06/02 13:13:48;;;;;;;;;5.25;5.00;;;;;;;;5106127;27;11578;-57
2021/06/02 13:16:13;;;;;;;;;5.50;5.25;;;;;;;;5113739;27;9894;-57
2021/06/02 13:18:39;;;;;;;;;4.33;4.33;;;;;;;;5109639;27;8819;-58
2021/06/02 13:21:11;;;;;;;;;6.00;6.00;;;;;;;;5107889;27;10467;-57
2021/06/02 13:23:37;;;;;;;;;4.00;4.00;;;;;;;;5111177;27;12481;-57
2021/06/02 13:26:07;;;;;;;;;3.00;3.00;;;;;;;;5088207;28;8887;-57
2021/06/02 13:28:33;;;;;;;;;6.25;5.50;;;;;;;;5085324;28;9023;-57
2021/06/02 13:31:00;;;;;;;;;4.75;4.50;;;;;;;;5100870;27;11725;-57
2021/06/02 13:33:36;;;;;;;;;4.00;4.00;;;;;;;;5102279;27;9783;-57
2021/06/02 13:36:03;;;;;;;;;5.00;5.00;;;;;;;;5093605;27;8775;-57
2021/06/02 13:38:28;;;;;;;;;3.50;3.50;;;;;;;;5088794;28;8959;-57
2021/06/02 13:40:54;;;;;;;;;4.00;4.00;;;;;;;;5085697;28;12742;-57
2021/06/02 13:43:19;;;;;;;;;4.67;3.67;;;;;;;;5100950;27;11572;-57
2021/06/02 13:46:06;;;;;;;;;5.00;5.00;;;;;;;;5107710;27;11616;-57
2021/06/02 13:48:31;;;;;;;;;3.00;3.00;;;;;;;;5105989;27;11598;-57
2021/06/02 13:51:16;;;;;;;;;2.00;2.00;;;;;;;;5114431;27;9501;-57
2021/06/02 13:53:56;;;;;;;;;2.00;2.00;;;;;;;;5111867;27;11635;-57
2021/06/02 13:56:22;;;;;;;;;3.00;3.00;;;;;;;;5106375;27;15340;-57
2021/06/02 13:59:03;;;;;;;;;3.00;3.00;;;;;;;;5110022;27;8812;-57
2021/06/02 14:01:28;;;;;;;;;3.25;3.25;;;;;;;;5110342;27;8795;-57
2021/06/02 14:03:53;;;;;;;;;5.00;4.00;;;;;;;;5097929;27;8807;-57
2021/06/02 14:06:19;;;;;;;;;2.00;2.00;;;;;;;;5097558;27;12700;-57
2021/06/02 14:08:44;;;;;;;;;4.00;2.33;;;;;;;;5107226;27;8959;-58
2021/06/02 14:11:09;;;;;;;;;1.75;1.75;;;;;;;;5108698;27;11767;-57
2021/06/02 14:13:34;;;;;;;;;2.33;2.00;;;;;;;;5094673;27;10493;-58
2021/06/02 14:16:00;;;;;;;;;2.00;2.00;;;;;;;;5099115;27;11539;-57
2021/06/02 14:18:25;;;;;;;;;3.00;3.00;;;;;;;;5111340;27;8858;-57
2021/06/02 14:20:50;;;;;;;;;2.00;2.00;;;;;;;;5107548;27;8821;-58
2021/06/02 14:23:15;;;;;;;;;3.00;3.00;;;;;;;;5109848;27;8823;-57
2021/06/02 14:25:40;;;;;;;;;2.00;2.00;;;;;;;;5109590;27;9544;-57
2021/06/02 14:28:06;;;;;;;;;3.00;2.00;;;;;;;;5093982;27;8877;-57
2021/06/02 14:30:31;;;;;;;;;2.67;2.00;;;;;;;;5091532;28;8814;-58
2021/06/02 14:32:56;;;;;;;;;2.00;1.75;;;;;;;;5093496;27;9036;-57
2021/06/02 14:35:21;;;;;;;;;2.00;2.00;;;;;;;;5117121;27;10507;-57
2021/06/02 14:37:46;;;;;;;;;3.67;2.67;;;;;;;;5108989;27;8967;-57
2021/06/02 14:40:12;;;;;;;;;3.00;3.00;;;;;;;;5106909;27;11545;-56
2021/06/02 14:42:37;;;;;;;;;2.00;2.00;;;;;;;;5107510;27;10527;-57
2021/06/02 14:45:03;;;;;;;;;1.00;1.00;;;;;;;;5110547;27;8776;-57
2021/06/02 14:47:29;;;;;;;;;2.50;2.50;;;;;;;;5107732;27;8960;-57
2021/06/02 14:49:56;;;;;;;;;3.00;2.33;;;;;;;;5123255;27;11576;-57
2021/06/02 14:52:22;;;;;;;;;3.75;3.00;;;;;;;;5091363;27;12818;-58
2021/06/02 14:54:47;;;;;;;;;2.00;2.00;;;;;;;;5097859;27;10521;-57
2021/06/02 14:57:13;;;;;;;;;2.00;2.00;;;;;;;;5101113;27;10458;-57
2021/06/02 14:59:38;;;;;;;;;2.00;2.00;;;;;;;;5085294;28;8862;-57
2021/06/02 15:02:03;;;;;;;;;2.50;2.50;;;;;;;;5105335;27;8796;-57
2021/06/02 15:04:28;;;;;;;;;2.33;2.33;;;;;;;;5107906;27;8781;-57
2021/06/02 15:06:53;;;;;;;;;2.67;2.67;;;;;;;;5107430;27;8803;-57
2021/06/02 15:09:19;;;;;;;;;2.00;2.00;;;;;;;;5104775;27;8827;-57
2021/06/02 15:11:49;;;;;;;;;2.00;2.00;;;;;;;;5083089;27;80734;-57
2021/06/02 15:14:14;;;;;;;;;2.00;1.75;;;;;;;;5109899;27;8814;-57